sensor_id;sensor_type;location;lat;lon;timestamp;P1;durP1;ratioP1;P2;durP2;ratioP2
635;SDS011;302;50.206;8.196;2022-08-03T00:00:32;2.63;;;2.43;;
635;SDS011;302;50.206;8.196;2022-08-03T00:02:57;3.00;;;2.43;;
635;SDS011;302;50.206;8.196;2022-08-03T00:05:22;2.63;;;2.53;;
635;SDS011;302;50.206;8.196;2022-08-03T00:07:47;2.50;;;2.40;;
635;SDS011;302;50.206;8.196;2022-08-03T00:10:12;2.53;;;2.40;;
635;SDS011;302;50.206;8.196;2022-08-03T00:12:38;2.70;;;2.50;;
635;SDS011;302;50.206;8.196;2022-08-03T00:15:03;2.30;;;2.10;;
635;SDS011;302;50.206;8.196;2022-08-03T00:17:29;2.67;;;2.47;;
635;SDS011;302;50.206;8.196;2022-08-03T00:19:54;3.40;;;3.20;;
635;SDS011;302;50.206;8.196;2022-08-03T00:22:19;3.00;;;2.80;;
635;SDS011;302;50.206;8.196;2022-08-03T00:24:44;2.75;;;2.55;;
635;SDS011;302;50.206;8.196;2022-08-03T00:27:09;2.88;;;2.67;;
635;SDS011;302;50.206;8.196;2022-08-03T00:29:34;4.97;;;3.20;;
635;SDS011;302;50.206;8.196;2022-08-03T00:32:00;2.73;;;2.53;;
635;SDS011;302;50.206;8.196;2022-08-03T00:34:25;3.20;;;3.00;;
635;SDS011;302;50.206;8.196;2022-08-03T00:36:50;2.80;;;2.60;;
635;SDS011;302;50.206;8.196;2022-08-03T00:39:15;2.53;;;2.42;;
635;SDS011;302;50.206;8.196;2022-08-03T00:41:40;2.90;;;2.70;;
635;SDS011;302;50.206;8.196;2022-08-03T00:44:05;2.63;;;2.43;;
635;SDS011;302;50.206;8.196;2022-08-03T00:46:30;3.07;;;2.87;;
635;SDS011;302;50.206;8.196;2022-08-03T00:48:56;4.67;;;2.80;;
635;SDS011;302;50.206;8.196;2022-08-03T00:51:21;2.30;;;2.20;;
635;SDS011;302;50.206;8.196;2022-08-03T00:53:46;2.60;;;2.40;;
635;SDS011;302;50.206;8.196;2022-08-03T00:56:15;2.80;;;2.60;;
635;SDS011;302;50.206;8.196;2022-08-03T00:58:42;2.85;;;2.63;;
635;SDS011;302;50.206;8.196;2022-08-03T01:01:07;2.80;;;2.60;;
635;SDS011;302;50.206;8.196;2022-08-03T01:03:32;2.67;;;2.47;;
635;SDS011;302;50.206;8.196;2022-08-03T01:06:11;2.70;;;2.50;;
635;SDS011;302;50.206;8.196;2022-08-03T01:08:47;2.85;;;2.65;;
635;SDS011;302;50.206;8.196;2022-08-03T01:13:49;2.60;;;2.22;;
635;SDS011;302;50.206;8.196;2022-08-03T01:16:18;2.50;;;2.40;;
635;SDS011;302;50.206;8.196;2022-08-03T01:21:23;3.05;;;2.85;;
635;SDS011;302;50.206;8.196;2022-08-03T01:24:01;2.60;;;2.40;;
635;SDS011;302;50.206;8.196;2022-08-03T01:26:35;2.67;;;2.47;;
635;SDS011;302;50.206;8.196;2022-08-03T01:29:13;2.95;;;2.30;;
635;SDS011;302;50.206;8.196;2022-08-03T01:31:43;2.72;;;2.53;;
635;SDS011;302;50.206;8.196;2022-08-03T01:34:09;2.58;;;2.38;;
635;SDS011;302;50.206;8.196;2022-08-03T01:36:37;2.90;;;2.70;;
635;SDS011;302;50.206;8.196;2022-08-03T01:39:04;2.85;;;2.65;;
635;SDS011;302;50.206;8.196;2022-08-03T01:41:33;2.47;;;2.30;;
635;SDS011;302;50.206;8.196;2022-08-03T01:44:00;3.40;;;3.10;;
635;SDS011;302;50.206;8.196;2022-08-03T01:46:26;2.95;;;2.60;;
635;SDS011;302;50.206;8.196;2022-08-03T01:48:52;2.80;;;2.60;;
635;SDS011;302;50.206;8.196;2022-08-03T01:51:18;3.05;;;2.40;;
635;SDS011;302;50.206;8.196;2022-08-03T01:53:44;2.92;;;2.72;;
635;SDS011;302;50.206;8.196;2022-08-03T01:56:10;3.10;;;2.90;;
635;SDS011;302;50.206;8.196;2022-08-03T01:58:37;2.95;;;2.75;;
635;SDS011;302;50.206;8.196;2022-08-03T02:01:04;2.40;;;2.30;;
635;SDS011;302;50.206;8.196;2022-08-03T02:03:29;2.63;;;2.43;;
635;SDS011;302;50.206;8.196;2022-08-03T02:05:56;2.85;;;2.17;;
635;SDS011;302;50.206;8.196;2022-08-03T02:08:22;2.65;;;2.45;;
635;SDS011;302;50.206;8.196;2022-08-03T02:10:48;2.17;;;2.08;;
635;SDS011;302;50.206;8.196;2022-08-03T02:13:13;2.13;;;2.03;;
635;SDS011;302;50.206;8.196;2022-08-03T02:15:39;2.63;;;2.43;;
635;SDS011;302;50.206;8.196;2022-08-03T02:18:06;2.80;;;2.60;;
635;SDS011;302;50.206;8.196;2022-08-03T02:20:32;2.70;;;2.50;;
635;SDS011;302;50.206;8.196;2022-08-03T02:23:00;3.10;;;2.90;;
635;SDS011;302;50.206;8.196;2022-08-03T02:25:25;2.77;;;2.50;;
635;SDS011;302;50.206;8.196;2022-08-03T02:27:51;2.70;;;2.50;;
635;SDS011;302;50.206;8.196;2022-08-03T02:30:18;3.78;;;2.50;;
635;SDS011;302;50.206;8.196;2022-08-03T02:32:46;2.10;;;2.00;;
635;SDS011;302;50.206;8.196;2022-08-03T02:35:12;2.53;;;2.40;;
635;SDS011;302;50.206;8.196;2022-08-03T02:37:46;2.50;;;2.30;;
635;SDS011;302;50.206;8.196;2022-08-03T02:40:13;2.70;;;2.50;;
635;SDS011;302;50.206;8.196;2022-08-03T02:42:39;3.03;;;2.77;;
635;SDS011;302;50.206;8.196;2022-08-03T02:45:05;2.42;;;2.22;;
635;SDS011;302;50.206;8.196;2022-08-03T02:47:31;2.78;;;2.58;;
635;SDS011;302;50.206;8.196;2022-08-03T02:49:58;3.60;;;3.25;;
635;SDS011;302;50.206;8.196;2022-08-03T02:52:25;2.57;;;2.30;;
635;SDS011;302;50.206;8.196;2022-08-03T02:54:52;2.60;;;2.40;;
635;SDS011;302;50.206;8.196;2022-08-03T02:57:18;2.80;;;2.60;;
635;SDS011;302;50.206;8.196;2022-08-03T02:59:44;2.63;;;2.43;;
635;SDS011;302;50.206;8.196;2022-08-03T03:02:10;2.50;;;2.30;;
635;SDS011;302;50.206;8.196;2022-08-03T03:04:36;3.20;;;3.00;;
635;SDS011;302;50.206;8.196;2022-08-03T03:07:01;2.50;;;2.40;;
635;SDS011;302;50.206;8.196;2022-08-03T03:09:27;2.37;;;2.23;;
635;SDS011;302;50.206;8.196;2022-08-03T03:11:52;2.77;;;2.57;;
635;SDS011;302;50.206;8.196;2022-08-03T03:14:17;2.40;;;2.30;;
635;SDS011;302;50.206;8.196;2022-08-03T03:16:44;2.38;;;2.20;;
635;SDS011;302;50.206;8.196;2022-08-03T03:19:11;2.40;;;2.28;;
635;SDS011;302;50.206;8.196;2022-08-03T03:21:36;2.80;;;2.60;;
635;SDS011;302;50.206;8.196;2022-08-03T03:24:02;2.57;;;2.33;;
635;SDS011;302;50.206;8.196;2022-08-03T03:26:28;2.50;;;2.30;;
635;SDS011;302;50.206;8.196;2022-08-03T03:28:53;2.87;;;2.67;;
635;SDS011;302;50.206;8.196;2022-08-03T03:31:18;3.20;;;3.00;;
635;SDS011;302;50.206;8.196;2022-08-03T03:33:43;4.63;;;2.80;;
635;SDS011;302;50.206;8.196;2022-08-03T03:36:09;2.90;;;2.70;;
635;SDS011;302;50.206;8.196;2022-08-03T03:38:34;3.00;;;2.80;;
635;SDS011;302;50.206;8.196;2022-08-03T03:40:59;2.90;;;2.70;;
635;SDS011;302;50.206;8.196;2022-08-03T03:43:25;2.80;;;2.50;;
635;SDS011;302;50.206;8.196;2022-08-03T03:45:50;3.83;;;2.40;;
635;SDS011;302;50.206;8.196;2022-08-03T03:48:17;3.35;;;2.65;;
635;SDS011;302;50.206;8.196;2022-08-03T03:50:42;2.77;;;2.57;;
635;SDS011;302;50.206;8.196;2022-08-03T03:53:08;3.10;;;2.80;;
635;SDS011;302;50.206;8.196;2022-08-03T03:55:35;2.90;;;2.70;;
635;SDS011;302;50.206;8.196;2022-08-03T03:58:00;2.30;;;2.20;;
635;SDS011;302;50.206;8.196;2022-08-03T04:00:25;3.83;;;3.53;;
635;SDS011;302;50.206;8.196;2022-08-03T04:02:50;2.77;;;2.57;;
635;SDS011;302;50.206;8.196;2022-08-03T04:05:15;2.53;;;2.43;;
635;SDS011;302;50.206;8.196;2022-08-03T04:10:45;2.53;;;2.38;;
635;SDS011;302;50.206;8.196;2022-08-03T04:13:23;2.88;;;2.67;;
635;SDS011;302;50.206;8.196;2022-08-03T04:15:49;2.70;;;2.50;;
635;SDS011;302;50.206;8.196;2022-08-03T04:18:14;3.23;;;3.03;;
635;SDS011;302;50.206;8.196;2022-08-03T04:20:40;3.13;;;2.93;;
635;SDS011;302;50.206;8.196;2022-08-03T04:23:08;2.90;;;2.70;;
635;SDS011;302;50.206;8.196;2022-08-03T04:25:35;3.08;;;2.88;;
635;SDS011;302;50.206;8.196;2022-08-03T04:28:02;2.73;;;2.53;;
635;SDS011;302;50.206;8.196;2022-08-03T04:30:27;2.63;;;2.43;;
635;SDS011;302;50.206;8.196;2022-08-03T04:32:56;2.80;;;2.60;;
635;SDS011;302;50.206;8.196;2022-08-03T04:35:26;3.25;;;2.95;;
635;SDS011;302;50.206;8.196;2022-08-03T04:37:53;2.88;;;2.65;;
635;SDS011;302;50.206;8.196;2022-08-03T04:40:32;4.85;;;3.00;;
635;SDS011;302;50.206;8.196;2022-08-03T04:42:57;2.92;;;2.58;;
635;SDS011;302;50.206;8.196;2022-08-03T04:45:23;3.40;;;3.13;;
635;SDS011;302;50.206;8.196;2022-08-03T04:47:49;3.03;;;2.83;;
635;SDS011;302;50.206;8.196;2022-08-03T04:50:14;3.40;;;3.20;;
635;SDS011;302;50.206;8.196;2022-08-03T04:52:39;3.17;;;2.97;;
635;SDS011;302;50.206;8.196;2022-08-03T04:55:05;2.90;;;2.70;;
635;SDS011;302;50.206;8.196;2022-08-03T04:57:30;3.10;;;2.87;;
635;SDS011;302;50.206;8.196;2022-08-03T04:59:55;2.80;;;2.60;;
635;SDS011;302;50.206;8.196;2022-08-03T05:02:21;3.37;;;3.07;;
635;SDS011;302;50.206;8.196;2022-08-03T05:04:47;2.63;;;2.47;;
635;SDS011;302;50.206;8.196;2022-08-03T05:07:13;2.70;;;2.50;;
635;SDS011;302;50.206;8.196;2022-08-03T05:09:38;3.00;;;2.80;;
635;SDS011;302;50.206;8.196;2022-08-03T05:12:04;3.03;;;2.53;;
635;SDS011;302;50.206;8.196;2022-08-03T05:14:29;3.17;;;2.97;;
635;SDS011;302;50.206;8.196;2022-08-03T05:16:54;3.30;;;2.57;;
635;SDS011;302;50.206;8.196;2022-08-03T05:19:19;2.70;;;2.50;;
635;SDS011;302;50.206;8.196;2022-08-03T05:21:45;2.80;;;2.60;;
635;SDS011;302;50.206;8.196;2022-08-03T05:24:10;2.90;;;2.70;;
635;SDS011;302;50.206;8.196;2022-08-03T05:26:35;3.20;;;3.00;;
635;SDS011;302;50.206;8.196;2022-08-03T05:29:01;3.10;;;2.83;;
635;SDS011;302;50.206;8.196;2022-08-03T05:31:26;3.47;;;3.17;;
635;SDS011;302;50.206;8.196;2022-08-03T05:33:51;3.13;;;2.83;;
635;SDS011;302;50.206;8.196;2022-08-03T05:36:16;3.00;;;2.80;;
635;SDS011;302;50.206;8.196;2022-08-03T05:38:41;2.93;;;2.73;;
635;SDS011;302;50.206;8.196;2022-08-03T05:41:07;2.60;;;2.47;;
635;SDS011;302;50.206;8.196;2022-08-03T05:43:32;2.40;;;2.30;;
635;SDS011;302;50.206;8.196;2022-08-03T05:45:57;2.87;;;2.67;;
635;SDS011;302;50.206;8.196;2022-08-03T05:48:24;3.20;;;3.00;;
635;SDS011;302;50.206;8.196;2022-08-03T05:50:49;3.00;;;2.80;;
635;SDS011;302;50.206;8.196;2022-08-03T05:53:15;2.73;;;2.53;;
635;SDS011;302;50.206;8.196;2022-08-03T05:55:40;2.87;;;2.67;;
635;SDS011;302;50.206;8.196;2022-08-03T05:58:05;3.10;;;2.80;;
635;SDS011;302;50.206;8.196;2022-08-03T06:00:30;3.03;;;2.80;;
635;SDS011;302;50.206;8.196;2022-08-03T06:02:55;2.90;;;2.70;;
635;SDS011;302;50.206;8.196;2022-08-03T06:05:21;3.00;;;2.80;;
635;SDS011;302;50.206;8.196;2022-08-03T06:07:46;2.70;;;2.50;;
635;SDS011;302;50.206;8.196;2022-08-03T06:10:11;3.43;;;3.23;;
635;SDS011;302;50.206;8.196;2022-08-03T06:12:36;2.70;;;2.50;;
635;SDS011;302;50.206;8.196;2022-08-03T06:15:03;3.08;;;2.70;;
635;SDS011;302;50.206;8.196;2022-08-03T06:17:28;2.80;;;2.60;;
635;SDS011;302;50.206;8.196;2022-08-03T06:19:53;2.97;;;2.77;;
635;SDS011;302;50.206;8.196;2022-08-03T06:22:19;3.07;;;2.87;;
635;SDS011;302;50.206;8.196;2022-08-03T06:24:44;2.90;;;2.60;;
635;SDS011;302;50.206;8.196;2022-08-03T06:27:09;2.85;;;2.65;;
635;SDS011;302;50.206;8.196;2022-08-03T06:29:36;2.70;;;2.50;;
635;SDS011;302;50.206;8.196;2022-08-03T06:32:01;2.80;;;2.60;;
635;SDS011;302;50.206;8.196;2022-08-03T06:34:26;3.92;;;2.80;;
635;SDS011;302;50.206;8.196;2022-08-03T06:36:51;3.03;;;2.83;;
635;SDS011;302;50.206;8.196;2022-08-03T06:39:16;3.43;;;2.77;;
635;SDS011;302;50.206;8.196;2022-08-03T06:41:42;3.20;;;3.00;;
635;SDS011;302;50.206;8.196;2022-08-03T06:44:07;2.50;;;2.30;;
635;SDS011;302;50.206;8.196;2022-08-03T06:46:32;3.03;;;2.83;;
635;SDS011;302;50.206;8.196;2022-08-03T06:48:58;2.63;;;2.40;;
635;SDS011;302;50.206;8.196;2022-08-03T06:51:23;2.73;;;2.53;;
635;SDS011;302;50.206;8.196;2022-08-03T06:53:48;3.17;;;2.97;;
635;SDS011;302;50.206;8.196;2022-08-03T06:56:13;2.97;;;2.77;;
635;SDS011;302;50.206;8.196;2022-08-03T06:58:38;3.33;;;3.07;;
635;SDS011;302;50.206;8.196;2022-08-03T07:01:03;3.50;;;3.30;;
635;SDS011;302;50.206;8.196;2022-08-03T07:03:29;3.13;;;2.60;;
635;SDS011;302;50.206;8.196;2022-08-03T07:05:54;3.17;;;2.97;;
635;SDS011;302;50.206;8.196;2022-08-03T07:08:19;3.93;;;2.93;;
635;SDS011;302;50.206;8.196;2022-08-03T07:10:44;2.90;;;2.70;;
635;SDS011;302;50.206;8.196;2022-08-03T07:13:10;3.40;;;3.10;;
635;SDS011;302;50.206;8.196;2022-08-03T07:15:35;3.50;;;3.20;;
635;SDS011;302;50.206;8.196;2022-08-03T07:18:00;4.13;;;3.23;;
635;SDS011;302;50.206;8.196;2022-08-03T07:20:25;3.20;;;2.70;;
635;SDS011;302;50.206;8.196;2022-08-03T07:22:50;3.20;;;3.00;;
635;SDS011;302;50.206;8.196;2022-08-03T07:25:16;4.10;;;3.40;;
635;SDS011;302;50.206;8.196;2022-08-03T07:27:45;3.37;;;3.13;;
635;SDS011;302;50.206;8.196;2022-08-03T07:30:10;3.77;;;3.47;;
635;SDS011;302;50.206;8.196;2022-08-03T07:32:35;3.33;;;3.03;;
635;SDS011;302;50.206;8.196;2022-08-03T07:35:01;3.20;;;3.00;;
635;SDS011;302;50.206;8.196;2022-08-03T07:37:26;3.33;;;3.13;;
635;SDS011;302;50.206;8.196;2022-08-03T07:39:52;3.13;;;2.93;;
635;SDS011;302;50.206;8.196;2022-08-03T07:42:17;3.67;;;3.47;;
635;SDS011;302;50.206;8.196;2022-08-03T07:44:42;3.20;;;3.00;;
635;SDS011;302;50.206;8.196;2022-08-03T07:47:07;3.20;;;3.00;;
635;SDS011;302;50.206;8.196;2022-08-03T07:49:33;3.10;;;2.90;;
635;SDS011;302;50.206;8.196;2022-08-03T07:51:58;2.93;;;2.73;;
635;SDS011;302;50.206;8.196;2022-08-03T07:54:42;3.80;;;3.50;;
635;SDS011;302;50.206;8.196;2022-08-03T07:57:07;3.30;;;3.10;;
635;SDS011;302;50.206;8.196;2022-08-03T07:59:32;3.40;;;3.20;;
635;SDS011;302;50.206;8.196;2022-08-03T08:01:59;3.40;;;3.10;;
635;SDS011;302;50.206;8.196;2022-08-03T08:04:24;3.20;;;3.00;;
635;SDS011;302;50.206;8.196;2022-08-03T08:06:49;4.00;;;3.13;;
635;SDS011;302;50.206;8.196;2022-08-03T08:09:14;3.22;;;3.03;;
635;SDS011;302;50.206;8.196;2022-08-03T08:11:39;3.40;;;3.20;;
635;SDS011;302;50.206;8.196;2022-08-03T08:14:04;3.03;;;2.83;;
635;SDS011;302;50.206;8.196;2022-08-03T08:16:31;3.10;;;2.90;;
635;SDS011;302;50.206;8.196;2022-08-03T08:18:56;3.40;;;3.20;;
635;SDS011;302;50.206;8.196;2022-08-03T08:21:21;3.00;;;2.63;;
635;SDS011;302;50.206;8.196;2022-08-03T08:23:47;3.50;;;3.20;;
635;SDS011;302;50.206;8.196;2022-08-03T08:26:12;3.50;;;3.30;;
635;SDS011;302;50.206;8.196;2022-08-03T08:28:37;3.00;;;2.80;;
635;SDS011;302;50.206;8.196;2022-08-03T08:31:02;4.30;;;3.90;;
635;SDS011;302;50.206;8.196;2022-08-03T08:33:28;4.40;;;4.00;;
635;SDS011;302;50.206;8.196;2022-08-03T08:35:53;3.30;;;3.10;;
635;SDS011;302;50.206;8.196;2022-08-03T08:38:18;3.50;;;3.30;;
635;SDS011;302;50.206;8.196;2022-08-03T08:40:43;3.10;;;2.80;;
635;SDS011;302;50.206;8.196;2022-08-03T08:43:09;3.07;;;2.87;;
635;SDS011;302;50.206;8.196;2022-08-03T08:45:34;3.70;;;3.40;;
635;SDS011;302;50.206;8.196;2022-08-03T08:47:59;3.30;;;2.70;;
635;SDS011;302;50.206;8.196;2022-08-03T08:50:26;3.47;;;3.17;;
635;SDS011;302;50.206;8.196;2022-08-03T08:52:51;3.20;;;3.00;;
635;SDS011;302;50.206;8.196;2022-08-03T08:55:21;2.90;;;2.70;;
635;SDS011;302;50.206;8.196;2022-08-03T08:57:47;3.00;;;2.80;;
635;SDS011;302;50.206;8.196;2022-08-03T09:00:13;3.10;;;2.90;;
635;SDS011;302;50.206;8.196;2022-08-03T09:02:38;3.50;;;3.20;;
635;SDS011;302;50.206;8.196;2022-08-03T09:05:06;3.67;;;3.40;;
635;SDS011;302;50.206;8.196;2022-08-03T09:07:33;3.13;;;2.93;;
635;SDS011;302;50.206;8.196;2022-08-03T09:09:58;3.10;;;2.90;;
635;SDS011;302;50.206;8.196;2022-08-03T09:12:24;3.33;;;3.13;;
635;SDS011;302;50.206;8.196;2022-08-03T09:14:49;3.23;;;3.03;;
635;SDS011;302;50.206;8.196;2022-08-03T09:17:14;3.93;;;3.70;;
635;SDS011;302;50.206;8.196;2022-08-03T09:19:39;3.38;;;3.08;;
635;SDS011;302;50.206;8.196;2022-08-03T09:22:10;3.47;;;3.23;;
635;SDS011;302;50.206;8.196;2022-08-03T09:27:43;3.83;;;3.53;;
635;SDS011;302;50.206;8.196;2022-08-03T09:30:12;3.10;;;2.90;;
635;SDS011;302;50.206;8.196;2022-08-03T09:32:37;3.40;;;3.20;;
635;SDS011;302;50.206;8.196;2022-08-03T09:35:03;2.83;;;2.63;;
635;SDS011;302;50.206;8.196;2022-08-03T09:37:29;2.67;;;2.47;;
635;SDS011;302;50.206;8.196;2022-08-03T09:40:32;3.63;;;3.40;;
635;SDS011;302;50.206;8.196;2022-08-03T09:42:57;2.90;;;2.70;;
635;SDS011;302;50.206;8.196;2022-08-03T09:45:25;3.28;;;3.08;;
635;SDS011;302;50.206;8.196;2022-08-03T09:47:51;3.20;;;2.97;;
635;SDS011;302;50.206;8.196;2022-08-03T09:50:16;2.70;;;2.50;;
635;SDS011;302;50.206;8.196;2022-08-03T09:52:42;3.40;;;3.10;;
635;SDS011;302;50.206;8.196;2022-08-03T09:55:09;2.67;;;2.47;;
635;SDS011;302;50.206;8.196;2022-08-03T09:57:34;3.40;;;3.10;;
635;SDS011;302;50.206;8.196;2022-08-03T10:00:06;3.17;;;2.97;;
635;SDS011;302;50.206;8.196;2022-08-03T10:02:34;2.87;;;2.67;;
635;SDS011;302;50.206;8.196;2022-08-03T10:04:59;3.00;;;2.80;;
635;SDS011;302;50.206;8.196;2022-08-03T10:07:24;3.20;;;2.93;;
635;SDS011;302;50.206;8.196;2022-08-03T10:09:54;3.17;;;2.97;;
635;SDS011;302;50.206;8.196;2022-08-03T10:12:19;3.00;;;2.80;;
635;SDS011;302;50.206;8.196;2022-08-03T10:14:44;3.17;;;2.97;;
635;SDS011;302;50.206;8.196;2022-08-03T10:17:10;3.50;;;3.30;;
635;SDS011;302;50.206;8.196;2022-08-03T10:19:35;3.10;;;2.90;;
635;SDS011;302;50.206;8.196;2022-08-03T10:22:02;2.97;;;2.77;;
635;SDS011;302;50.206;8.196;2022-08-03T10:24:28;3.13;;;2.93;;
635;SDS011;302;50.206;8.196;2022-08-03T10:26:58;3.53;;;3.23;;
635;SDS011;302;50.206;8.196;2022-08-03T10:29:25;3.00;;;2.80;;
635;SDS011;302;50.206;8.196;2022-08-03T10:31:52;2.73;;;2.53;;
635;SDS011;302;50.206;8.196;2022-08-03T10:34:22;3.00;;;2.80;;
635;SDS011;302;50.206;8.196;2022-08-03T10:36:48;3.10;;;2.90;;
635;SDS011;302;50.206;8.196;2022-08-03T10:39:13;3.00;;;2.80;;
635;SDS011;302;50.206;8.196;2022-08-03T10:41:42;3.20;;;3.00;;
635;SDS011;302;50.206;8.196;2022-08-03T10:44:11;2.70;;;2.50;;
635;SDS011;302;50.206;8.196;2022-08-03T10:46:38;3.90;;;3.60;;
635;SDS011;302;50.206;8.196;2022-08-03T10:49:03;3.10;;;2.90;;
635;SDS011;302;50.206;8.196;2022-08-03T10:51:29;3.70;;;3.40;;
635;SDS011;302;50.206;8.196;2022-08-03T10:53:56;3.40;;;3.10;;
635;SDS011;302;50.206;8.196;2022-08-03T10:59:15;3.20;;;3.00;;
635;SDS011;302;50.206;8.196;2022-08-03T11:01:53;2.70;;;2.50;;
635;SDS011;302;50.206;8.196;2022-08-03T11:04:19;3.07;;;2.87;;
635;SDS011;302;50.206;8.196;2022-08-03T11:06:45;3.10;;;2.90;;
635;SDS011;302;50.206;8.196;2022-08-03T11:11:36;3.37;;;3.17;;
635;SDS011;302;50.206;8.196;2022-08-03T11:16:28;2.93;;;2.70;;
635;SDS011;302;50.206;8.196;2022-08-03T11:19:03;2.60;;;2.40;;
635;SDS011;302;50.206;8.196;2022-08-03T11:27:15;3.00;;;2.80;;
635;SDS011;302;50.206;8.196;2022-08-03T11:29:53;3.27;;;2.97;;
635;SDS011;302;50.206;8.196;2022-08-03T11:37:31;2.73;;;2.53;;
635;SDS011;302;50.206;8.196;2022-08-03T11:39:57;3.17;;;2.97;;
635;SDS011;302;50.206;8.196;2022-08-03T11:44:57;3.10;;;2.90;;
635;SDS011;302;50.206;8.196;2022-08-03T11:47:25;3.20;;;2.90;;
635;SDS011;302;50.206;8.196;2022-08-03T11:49:54;2.97;;;2.67;;
635;SDS011;302;50.206;8.196;2022-08-03T11:52:19;3.13;;;2.73;;
635;SDS011;302;50.206;8.196;2022-08-03T11:54:45;2.87;;;2.67;;
635;SDS011;302;50.206;8.196;2022-08-03T11:57:25;3.13;;;2.93;;
635;SDS011;302;50.206;8.196;2022-08-03T11:59:52;3.30;;;3.00;;
635;SDS011;302;50.206;8.196;2022-08-03T12:02:17;3.93;;;2.70;;
635;SDS011;302;50.206;8.196;2022-08-03T12:05:15;3.10;;;2.90;;
635;SDS011;302;50.206;8.196;2022-08-03T12:07:33;2.90;;;2.70;;
635;SDS011;302;50.206;8.196;2022-08-03T12:10:10;3.57;;;2.80;;
635;SDS011;302;50.206;8.196;2022-08-03T12:12:36;3.00;;;2.70;;
635;SDS011;302;50.206;8.196;2022-08-03T12:15:02;2.97;;;2.77;;
635;SDS011;302;50.206;8.196;2022-08-03T12:17:37;2.33;;;2.20;;
635;SDS011;302;50.206;8.196;2022-08-03T12:20:04;3.13;;;2.90;;
635;SDS011;302;50.206;8.196;2022-08-03T12:22:33;2.57;;;2.37;;
635;SDS011;302;50.206;8.196;2022-08-03T12:25:03;2.57;;;2.40;;
635;SDS011;302;50.206;8.196;2022-08-03T12:27:29;2.60;;;2.40;;
635;SDS011;302;50.206;8.196;2022-08-03T12:29:56;2.30;;;2.20;;
635;SDS011;302;50.206;8.196;2022-08-03T12:32:24;2.77;;;2.57;;
635;SDS011;302;50.206;8.196;2022-08-03T12:34:52;2.47;;;2.27;;
635;SDS011;302;50.206;8.196;2022-08-03T12:37:21;2.83;;;2.63;;
635;SDS011;302;50.206;8.196;2022-08-03T12:39:50;2.70;;;2.50;;
635;SDS011;302;50.206;8.196;2022-08-03T12:42:17;2.60;;;2.40;;
635;SDS011;302;50.206;8.196;2022-08-03T12:44:45;3.20;;;2.10;;
635;SDS011;302;50.206;8.196;2022-08-03T12:47:10;2.40;;;2.30;;
635;SDS011;302;50.206;8.196;2022-08-03T12:52:06;3.17;;;2.87;;
635;SDS011;302;50.206;8.196;2022-08-03T12:54:32;4.10;;;3.70;;
635;SDS011;302;50.206;8.196;2022-08-03T12:59:28;3.23;;;3.03;;
635;SDS011;302;50.206;8.196;2022-08-03T13:01:54;3.00;;;2.80;;
635;SDS011;302;50.206;8.196;2022-08-03T13:04:26;3.70;;;2.87;;
635;SDS011;302;50.206;8.196;2022-08-03T13:07:01;2.90;;;2.70;;
635;SDS011;302;50.206;8.196;2022-08-03T13:09:27;3.03;;;2.80;;
635;SDS011;302;50.206;8.196;2022-08-03T13:12:10;3.57;;;3.27;;
635;SDS011;302;50.206;8.196;2022-08-03T13:14:36;3.20;;;3.00;;
635;SDS011;302;50.206;8.196;2022-08-03T13:17:02;2.70;;;2.50;;
635;SDS011;302;50.206;8.196;2022-08-03T13:19:27;4.13;;;2.70;;
635;SDS011;302;50.206;8.196;2022-08-03T13:21:52;4.70;;;2.93;;
635;SDS011;302;50.206;8.196;2022-08-03T13:24:17;3.40;;;2.33;;
635;SDS011;302;50.206;8.196;2022-08-03T13:26:43;2.63;;;2.53;;
635;SDS011;302;50.206;8.196;2022-08-03T13:29:08;2.77;;;2.57;;
635;SDS011;302;50.206;8.196;2022-08-03T13:31:33;3.20;;;2.80;;
635;SDS011;302;50.206;8.196;2022-08-03T13:33:58;2.80;;;2.60;;
635;SDS011;302;50.206;8.196;2022-08-03T13:36:24;3.73;;;3.17;;
635;SDS011;302;50.206;8.196;2022-08-03T13:38:49;2.90;;;2.80;;
635;SDS011;302;50.206;8.196;2022-08-03T13:41:14;3.50;;;3.20;;
635;SDS011;302;50.206;8.196;2022-08-03T13:43:39;3.07;;;2.87;;
635;SDS011;302;50.206;8.196;2022-08-03T13:46:04;3.27;;;2.93;;
635;SDS011;302;50.206;8.196;2022-08-03T13:48:30;3.40;;;3.20;;
635;SDS011;302;50.206;8.196;2022-08-03T13:50:55;3.30;;;3.20;;
635;SDS011;302;50.206;8.196;2022-08-03T13:53:20;2.97;;;2.87;;
635;SDS011;302;50.206;8.196;2022-08-03T13:55:45;3.77;;;3.60;;
635;SDS011;302;50.206;8.196;2022-08-03T13:58:10;3.47;;;3.37;;
635;SDS011;302;50.206;8.196;2022-08-03T14:00:36;4.80;;;3.60;;
635;SDS011;302;50.206;8.196;2022-08-03T14:03:01;3.33;;;3.13;;
635;SDS011;302;50.206;8.196;2022-08-03T14:05:27;3.78;;;3.58;;
635;SDS011;302;50.206;8.196;2022-08-03T14:07:52;3.53;;;3.42;;
635;SDS011;302;50.206;8.196;2022-08-03T14:10:17;3.72;;;3.60;;
635;SDS011;302;50.206;8.196;2022-08-03T14:12:43;3.70;;;3.50;;
635;SDS011;302;50.206;8.196;2022-08-03T14:15:08;3.80;;;3.70;;
635;SDS011;302;50.206;8.196;2022-08-03T14:17:34;3.97;;;3.60;;
635;SDS011;302;50.206;8.196;2022-08-03T14:19:59;3.33;;;3.22;;
635;SDS011;302;50.206;8.196;2022-08-03T14:22:24;3.73;;;3.63;;
635;SDS011;302;50.206;8.196;2022-08-03T14:24:49;3.30;;;3.20;;
635;SDS011;302;50.206;8.196;2022-08-03T14:27:15;3.77;;;3.67;;
635;SDS011;302;50.206;8.196;2022-08-03T14:29:40;3.92;;;3.72;;
635;SDS011;302;50.206;8.196;2022-08-03T14:32:05;3.70;;;3.60;;
635;SDS011;302;50.206;8.196;2022-08-03T14:34:30;3.40;;;3.30;;
635;SDS011;302;50.206;8.196;2022-08-03T14:36:55;4.20;;;3.90;;
635;SDS011;302;50.206;8.196;2022-08-03T14:39:20;3.83;;;3.73;;
635;SDS011;302;50.206;8.196;2022-08-03T14:41:46;3.70;;;3.50;;
635;SDS011;302;50.206;8.196;2022-08-03T14:44:11;4.03;;;3.83;;
635;SDS011;302;50.206;8.196;2022-08-03T14:46:36;4.38;;;4.28;;
635;SDS011;302;50.206;8.196;2022-08-03T14:49:01;4.10;;;3.80;;
635;SDS011;302;50.206;8.196;2022-08-03T14:51:27;4.65;;;4.45;;
635;SDS011;302;50.206;8.196;2022-08-03T14:53:53;5.25;;;4.97;;
635;SDS011;302;50.206;8.196;2022-08-03T14:56:19;5.80;;;5.60;;
635;SDS011;302;50.206;8.196;2022-08-03T14:58:47;7.07;;;6.88;;
635;SDS011;302;50.206;8.196;2022-08-03T15:01:12;6.28;;;6.07;;
635;SDS011;302;50.206;8.196;2022-08-03T15:03:46;6.60;;;6.40;;
635;SDS011;302;50.206;8.196;2022-08-03T15:06:12;6.57;;;6.38;;
635;SDS011;302;50.206;8.196;2022-08-03T15:08:38;6.97;;;6.78;;
635;SDS011;302;50.206;8.196;2022-08-03T15:11:03;5.13;;;4.93;;
635;SDS011;302;50.206;8.196;2022-08-03T15:13:31;5.53;;;5.32;;
635;SDS011;302;50.206;8.196;2022-08-03T15:15:57;5.38;;;5.07;;
635;SDS011;302;50.206;8.196;2022-08-03T15:18:22;4.68;;;4.47;;
635;SDS011;302;50.206;8.196;2022-08-03T15:20:47;4.88;;;4.68;;
635;SDS011;302;50.206;8.196;2022-08-03T15:23:14;4.57;;;4.28;;
635;SDS011;302;50.206;8.196;2022-08-03T15:25:40;4.20;;;4.10;;
635;SDS011;302;50.206;8.196;2022-08-03T15:28:06;4.70;;;4.50;;
635;SDS011;302;50.206;8.196;2022-08-03T15:30:31;4.17;;;3.97;;
635;SDS011;302;50.206;8.196;2022-08-03T15:33:00;4.78;;;4.47;;
635;SDS011;302;50.206;8.196;2022-08-03T15:35:25;4.53;;;4.43;;
635;SDS011;302;50.206;8.196;2022-08-03T15:37:52;4.45;;;4.25;;
635;SDS011;302;50.206;8.196;2022-08-03T15:40:17;4.45;;;4.35;;
635;SDS011;302;50.206;8.196;2022-08-03T15:42:43;4.32;;;4.13;;
635;SDS011;302;50.206;8.196;2022-08-03T15:45:08;3.73;;;3.60;;
635;SDS011;302;50.206;8.196;2022-08-03T15:47:33;3.90;;;3.80;;
635;SDS011;302;50.206;8.196;2022-08-03T15:49:59;5.30;;;5.10;;
635;SDS011;302;50.206;8.196;2022-08-03T15:52:24;4.97;;;4.50;;
635;SDS011;302;50.206;8.196;2022-08-03T15:54:49;5.00;;;4.80;;
635;SDS011;302;50.206;8.196;2022-08-03T15:57:14;4.77;;;4.57;;
635;SDS011;302;50.206;8.196;2022-08-03T15:59:39;5.03;;;4.83;;
635;SDS011;302;50.206;8.196;2022-08-03T16:02:04;6.00;;;5.80;;
635;SDS011;302;50.206;8.196;2022-08-03T16:04:30;5.80;;;5.60;;
635;SDS011;302;50.206;8.196;2022-08-03T16:06:55;6.00;;;5.80;;
635;SDS011;302;50.206;8.196;2022-08-03T16:09:20;6.27;;;5.97;;
635;SDS011;302;50.206;8.196;2022-08-03T16:11:46;5.40;;;5.15;;
635;SDS011;302;50.206;8.196;2022-08-03T16:14:11;6.10;;;5.90;;
635;SDS011;302;50.206;8.196;2022-08-03T16:16:36;5.47;;;5.27;;